Time;durP1;ratioP1;P1;durP2;ratioP2;P2;SDS_P1;SDS_P2;PMS_P1;PMS_P2;Temp;Humidity;BMP_temperature;BMP_pressure;BME280_temperature;BME280_humidity;BME280_pressure;Samples;Min_cycle;Max_cycle;Signal;HPM_P1;HPM_P2
2023/10/19 00:04:01;;;;;;;1.48;1.48;;;;;;;12.48;100.00;99112.22;10577823;28;20305;-75
2023/10/19 00:09:01;;;;;;;1.52;1.48;;;;;;;12.59;100.00;99105.00;10578753;28;20047;-76
2023/10/19 00:14:03;;;;;;;0.50;0.50;;;;;;;12.64;100.00;99099.63;10579841;28;20523;-77
2023/10/19 00:19:03;;;;;;;1.30;1.30;;;;;;;12.65;100.00;99104.00;10578772;28;20031;-77
2023/10/19 00:24:05;;;;;;;0.50;0.50;;;;;;;12.76;100.00;99108.47;10579095;28;20036;-78
2023/10/19 00:29:23;;;;;;;0.98;0.98;;;;;;;12.85;100.00;99108.00;10577747;28;20063;-76
2023/10/19 00:34:28;;;;;;;1.38;1.38;;;;;;;12.91;100.00;99094.19;10578759;28;20039;-75
2023/10/19 00:39:40;;;;;;;1.08;1.08;;;;;;;12.96;100.00;99096.16;10578646;28;20079;-75
2023/10/19 00:44:48;;;;;;;2.10;2.00;;;;;;;13.04;100.00;99096.50;10577785;28;20039;-76
2023/10/19 00:49:49;;;;;;;7.28;2.35;;;;;;;13.11;100.00;99088.13;10577004;28;20031;-74
2023/10/19 01:05:00;;;;;;;1.77;1.67;;;;;;;13.28;100.00;99103.53;10582687;28;20096;-76
2023/10/19 01:10:20;;;;;;;1.25;1.25;;;;;;;13.39;100.00;99095.19;10585372;28;20028;-76
2023/10/19 01:25:36;;;;;;;0.63;0.63;;;;;;;14.13;100.00;99080.66;10584927;28;20081;-76
2023/10/19 01:30:38;;;;;;;0.93;0.93;;;;;;;14.34;100.00;99094.38;10585387;27;20541;-75
2023/10/19 01:41:01;;;;;;;0.43;0.43;;;;;;;14.45;100.00;99082.44;10583868;28;20064;-75
2023/10/19 01:46:04;;;;;;;0.40;0.40;;;;;;;14.54;100.00;99085.50;10584507;28;20122;-75
2023/10/19 01:51:05;;;;;;;1.02;1.02;;;;;;;14.52;100.00;99090.41;10583719;28;20031;-74
2023/10/19 01:56:09;;;;;;;0.45;0.45;;;;;;;14.49;100.00;99080.84;10582992;28;20027;-74
2023/10/19 02:06:17;;;;;;;0.50;0.50;;;;;;;14.51;100.00;99077.84;10583625;28;20435;-75
2023/10/19 02:11:21;;;;;;;0.47;0.47;;;;;;;14.55;100.00;99078.94;10582437;28;20100;-74
2023/10/19 02:16:22;;;;;;;2.28;0.90;;;;;;;14.54;100.00;99064.50;10581662;28;20031;-74
2023/10/19 02:21:23;;;;;;;0.40;0.40;;;;;;;14.54;100.00;99071.88;10583917;28;20024;-74
2023/10/19 02:26:27;;;;;;;14.65;0.98;;;;;;;14.51;100.00;99062.31;10582355;28;20027;-74
2023/10/19 02:31:27;;;;;;;0.50;0.50;;;;;;;14.51;100.00;99059.59;10564935;28;20085;-74
2023/10/19 02:36:30;;;;;;;0.52;0.52;;;;;;;14.42;100.00;99059.28;10583562;28;20080;-77
2023/10/19 02:41:31;;;;;;;0.43;0.43;;;;;;;14.41;100.00;99068.53;10584272;28;20088;-76
2023/10/19 02:46:34;;;;;;;0.43;0.43;;;;;;;14.38;100.00;99057.38;10584643;28;20036;-77
2023/10/19 02:51:35;;;;;;;0.40;0.40;;;;;;;14.34;100.00;99056.25;10584128;28;20122;-75
2023/10/19 02:56:35;;;;;;;0.40;0.40;;;;;;;14.33;100.00;99054.63;10581244;28;20119;-76
2023/10/19 03:01:36;;;;;;;0.40;0.40;;;;;;;14.34;100.00;99053.53;10583015;28;20039;-76
2023/10/19 03:06:37;;;;;;;0.40;0.40;;;;;;;14.28;100.00;99049.97;10580680;28;20135;-75
2023/10/19 03:11:40;;;;;;;0.38;0.38;;;;;;;14.21;100.00;99056.78;10582982;28;20028;-76
2023/10/19 03:16:42;;;;;;;0.40;0.40;;;;;;;13.93;100.00;99042.50;10581020;28;20432;-76
2023/10/19 03:21:42;;;;;;;0.40;0.40;;;;;;;13.80;100.00;99053.84;10583120;28;20043;-75
2023/10/19 03:26:48;;;;;;;0.80;0.80;;;;;;;13.73;100.00;99040.50;10581320;28;20107;-77
2023/10/19 03:31:48;;;;;;;0.47;0.47;;;;;;;13.66;100.00;99037.19;10581346;28;20035;-77
2023/10/19 03:36:50;;;;;;;0.57;0.57;;;;;;;13.55;100.00;99038.19;10598587;27;20027;-75
2023/10/19 03:41:52;;;;;;;0.40;0.40;;;;;;;13.55;100.00;99041.72;10563196;28;20086;-76
2023/10/19 03:46:53;;;;;;;1.55;1.45;;;;;;;13.69;100.00;99042.91;10579730;28;20093;-75
2023/10/19 03:52:00;;;;;;;0.93;0.93;;;;;;;13.78;100.00;99042.41;10580904;28;20039;-77
2023/10/19 03:57:06;;;;;;;0.40;0.40;;;;;;;13.82;100.00;99035.38;10579618;28;20039;-75
2023/10/19 04:02:10;;;;;;;0.30;0.30;;;;;;;13.84;100.00;99042.16;10579620;28;20115;-76
2023/10/19 04:07:16;;;;;;;0.82;0.82;;;;;;;13.86;100.00;99047.34;10579517;28;20035;-75
2023/10/19 04:12:17;;;;;;;0.60;0.60;;;;;;;13.85;100.00;99046.53;10579839;28;20032;-76
2023/10/19 04:17:20;;;;;;;0.50;0.50;;;;;;;13.90;100.00;99046.56;10595236;27;20027;-76
2023/10/19 04:22:24;;;;;;;0.50;0.50;;;;;;;13.92;100.00;99051.75;10580405;28;20066;-76
2023/10/19 04:27:26;;;;;;;0.47;0.47;;;;;;;13.92;100.00;99049.03;10580664;28;20364;-76
2023/10/19 04:32:26;;;;;;;0.47;0.47;;;;;;;13.95;100.00;99053.94;10544974;28;20488;-76
2023/10/19 04:37:27;;;;;;;0.80;0.80;;;;;;;13.95;100.00;99049.31;10564244;28;20059;-76
2023/10/19 04:42:27;;;;;;;0.40;0.40;;;;;;;13.96;100.00;99061.00;10592525;28;20023;-77
2023/10/19 04:47:28;;;;;;;42.00;2.70;;;;;;;13.99;100.00;99055.03;10592785;28;20136;-77
2023/10/19 04:52:29;;;;;;;0.40;0.40;;;;;;;14.02;100.00;99059.13;10592071;28;20141;-75
2023/10/19 04:57:30;;;;;;;0.40;0.40;;;;;;;14.01;100.00;99055.59;10575515;28;20023;-75
2023/10/19 05:02:30;;;;;;;0.50;0.50;;;;;;;14.03;100.00;99053.41;10591066;27;20039;-76
2023/10/19 05:07:31;;;;;;;0.50;0.50;;;;;;;14.00;100.00;99056.66;10592428;28;20044;-74
2023/10/19 05:12:31;;;;;;;0.60;0.60;;;;;;;13.95;100.00;99060.19;10591664;28;20035;-75
2023/10/19 05:17:32;;;;;;;0.60;0.60;;;;;;;13.97;100.00;99059.91;10574356;28;20032;-76
2023/10/19 05:22:32;;;;;;;0.40;0.40;;;;;;;14.03;100.00;99069.75;10593348;27;20071;-76
2023/10/19 05:27:33;;;;;;;1.35;1.35;;;;;;;14.06;100.00;99055.59;10593267;27;20092;-76
2023/10/19 05:32:33;;;;;;;0.50;0.50;;;;;;;14.08;100.00;99052.63;10591637;27;20041;-75
2023/10/19 05:37:34;;;;;;;0.60;0.60;;;;;;;14.16;100.00;99054.81;10590243;28;20047;-75
2023/10/19 05:42:34;;;;;;;0.50;0.50;;;;;;;14.21;100.00;99049.41;10592109;28;20027;-76
2023/10/19 05:47:36;;;;;;;0.95;0.95;;;;;;;14.16;100.00;99047.47;10592737;28;20080;-75
2023/10/19 05:52:36;;;;;;;0.50;0.50;;;;;;;14.15;100.00;99053.19;10584260;27;20459;-75
2023/10/19 05:57:40;;;;;;;1.10;1.10;;;;;;;14.13;100.00;99053.44;10583695;28;20044;-74
2023/10/19 06:02:44;;;;;;;6.65;3.70;;;;;;;14.23;100.00;99060.88;10585040;28;20036;-75
2023/10/19 06:07:48;;;;;;;5.32;2.15;;;;;;;14.22;100.00;99064.66;10584125;28;20027;-74
2023/10/19 06:12:49;;;;;;;0.40;0.40;;;;;;;14.29;100.00;99075.28;10582565;28;20027;-75
2023/10/19 06:17:50;;;;;;;0.50;0.50;;;;;;;14.32;100.00;99075.56;10583039;28;20024;-75
2023/10/19 06:22:51;;;;;;;1.75;1.65;;;;;;;14.38;100.00;99068.25;10584356;28;20032;-75
2023/10/19 06:27:52;;;;;;;0.38;0.38;;;;;;;14.38;100.00;99079.16;10566134;28;20482;-75
2023/10/19 06:32:54;;;;;;;0.50;0.50;;;;;;;14.38;100.00;99095.47;10583980;28;20036;-76
2023/10/19 06:37:55;;;;;;;0.30;0.30;;;;;;;14.47;100.00;99098.53;10565067;28;20052;-74
2023/10/19 06:42:56;;;;;;;0.60;0.60;;;;;;;14.54;100.00;99104.56;10600667;27;20063;-74
2023/10/19 06:48:01;;;;;;;0.50;0.50;;;;;;;14.58;100.00;99102.94;10582991;28;20043;-75
2023/10/19 06:53:05;;;;;;;0.32;0.32;;;;;;;14.54;100.00;99093.66;10583590;28;20486;-76
2023/10/19 06:58:05;;;;;;;0.40;0.40;;;;;;;14.62;100.00;99093.16;10584166;28;20126;-75
2023/10/19 07:03:06;;;;;;;0.40;0.40;;;;;;;14.63;100.00;99092.88;10583302;28;20031;-75
2023/10/19 07:08:07;;;;;;;1.23;1.23;;;;;;;14.68;100.00;99099.41;10581874;28;20084;-74
2023/10/19 07:13:08;;;;;;;0.50;0.50;;;;;;;14.81;100.00;99098.94;10582527;28;20088;-74
2023/10/19 07:18:09;;;;;;;0.70;0.70;;;;;;;14.92;100.00;99110.66;10581662;28;20028;-75
2023/10/19 07:23:10;;;;;;;1.08;1.02;;;;;;;14.93;100.00;99107.66;10582133;28;20496;-75
2023/10/19 07:28:14;;;;;;;0.50;0.50;;;;;;;14.94;100.00;99103.84;10581809;28;20028;-74
2023/10/19 07:33:17;;;;;;;0.77;0.77;;;;;;;15.01;100.00;99115.31;10580407;28;20408;-74
2023/10/19 07:38:20;;;;;;;0.60;0.60;;;;;;;15.09;100.00;99117.50;10580828;28;20056;-75
2023/10/19 07:43:21;;;;;;;2.55;0.98;;;;;;;15.16;100.00;99121.88;10580670;28;20043;-75
2023/10/19 07:48:22;;;;;;;0.40;0.40;;;;;;;15.27;100.00;99132.50;10581473;28;20047;-74
2023/10/19 07:53:24;;;;;;;0.60;0.60;;;;;;;15.46;100.00;99121.88;10579221;28;20032;-74
2023/10/19 07:58:25;;;;;;;0.50;0.50;;;;;;;15.61;100.00;99120.25;10581741;28;20030;-75
2023/10/19 08:03:26;;;;;;;0.50;0.50;;;;;;;15.63;100.00;99118.03;10563619;28;20035;-75
2023/10/19 08:08:33;;;;;;;0.57;0.57;;;;;;;15.78;100.00;99118.88;10579015;28;20080;-74
2023/10/19 08:13:34;;;;;;;1.13;1.13;;;;;;;15.85;100.00;99113.13;10580512;28;20184;-74
2023/10/19 08:18:35;;;;;;;0.40;0.40;;;;;;;15.89;100.00;99111.50;10580638;28;20116;-74
2023/10/19 08:23:35;;;;;;;0.47;0.47;;;;;;;16.05;100.00;99106.81;10579787;28;20371;-74
2023/10/19 08:28:36;;;;;;;0.60;0.60;;;;;;;16.19;100.00;99113.31;10579728;28;20032;-74
2023/10/19 08:33:38;;;;;;;1.02;0.93;;;;;;;16.40;100.00;99111.34;10578384;28;20027;-74
2023/10/19 08:38:39;;;;;;;5.55;2.75;;;;;;;16.93;100.00;99113.53;10579075;28;20055;-74
2023/10/19 08:43:39;;;;;;;9.48;4.97;;;;;;;16.97;100.00;99106.41;10578403;28;20035;-74
2023/10/19 08:48:41;;;;;;;10.65;3.45;;;;;;;16.83;100.00;99103.50;10578131;28;20035;-75
2023/10/19 08:53:44;;;;;;;8.90;3.30;;;;;;;16.87;100.00;99104.56;10561278;28;20408;-74
2023/10/19 08:58:45;;;;;;;11.02;3.97;;;;;;;16.96;100.00;99100.13;10578166;28;20391;-75
2023/10/19 09:03:46;;;;;;;4.93;2.92;;;;;;;16.85;100.00;99108.69;10578399;28;20061;-75
2023/10/19 09:08:48;;;;;;;8.13;3.40;;;;;;;16.87;100.00;99096.34;10577058;28;20575;-74
2023/10/19 09:13:49;;;;;;;3.97;3.25;;;;;;;17.05;100.00;99094.06;10560820;28;20481;-75
2023/10/19 09:18:51;;;;;;;11.27;3.05;;;;;;;17.14;100.00;99093.16;10577554;28;20095;-75
2023/10/19 09:23:56;;;;;;;11.45;3.58;;;;;;;17.28;100.00;99085.13;10580560;28;20102;-75
2023/10/19 09:28:56;;;;;;;4.00;3.20;;;;;;;17.62;100.00;99074.16;10585560;28;20054;-75
2023/10/19 09:33:57;;;;;;;3.67;3.38;;;;;;;17.59;100.00;99074.72;10585089;28;20070;-75
2023/10/19 09:38:57;;;;;;;9.85;3.53;;;;;;;17.98;100.00;99067.53;10568572;28;20043;-75
2023/10/19 09:44:04;;;;;;;6.88;3.20;;;;;;;17.93;100.00;99067.56;10585522;27;20114;-75
2023/10/19 09:49:06;;;;;;;8.73;3.83;;;;;;;17.77;100.00;99070.50;10584452;28;20070;-74
2023/10/19 09:54:36;;;;;;;12.35;3.40;;;;;;;17.51;100.00;99077.25;10585013;28;20473;-75
2023/10/19 09:59:38;;;;;;;5.25;4.00;;;;;;;17.27;100.00;99078.03;10568034;28;20039;-76
2023/10/19 10:04:42;;;;;;;10.23;4.05;;;;;;;17.17;100.00;99076.19;10584657;28;20050;-76
2023/10/19 10:09:45;;;;;;;24.30;4.45;;;;;;;17.26;100.00;99083.78;10585340;28;20023;-75
2023/10/19 10:15:02;;;;;;;6.72;3.53;;;;;;;17.81;100.00;99057.03;10567687;28;20027;-75
2023/10/19 10:20:15;;;;;;;4.90;3.45;;;;;;;20.18;100.00;99049.25;10583496;28;20477;-76
2023/10/19 10:25:28;;;;;;;6.57;2.85;;;;;;;19.82;100.00;99064.84;10584723;28;20039;-75
2023/10/19 10:30:28;;;;;;;6.30;4.03;;;;;;;19.25;100.00;99079.50;10585337;28;20142;-76
2023/10/19 10:35:53;;;;;;;7.95;3.33;;;;;;;19.21;100.00;99064.75;10582989;28;20032;-76
2023/10/19 10:40:53;;;;;;;3.55;2.13;;;;;;;18.85;100.00;99059.00;10569082;28;20498;-76
2023/10/19 10:46:05;;;;;;;4.07;3.20;;;;;;;18.67;100.00;99063.34;10582880;28;20028;-76
2023/10/19 10:51:15;;;;;;;14.13;3.15;;;;;;;18.77;100.00;99062.41;10564823;28;20474;-77
2023/10/19 10:56:17;;;;;;;5.43;3.03;;;;;;;19.16;100.00;99045.63;10582678;28;20382;-76
2023/10/19 11:01:35;;;;;;;8.30;2.85;;;;;;;19.54;100.00;99066.69;10598627;27;20378;-76
2023/10/19 11:06:58;;;;;;;13.18;4.65;;;;;;;19.77;100.00;99059.41;10583309;28;20088;-76
2023/10/19 11:12:00;;;;;;;7.38;3.70;;;;;;;19.92;100.00;99046.22;10583769;28;20027;-76
2023/10/19 11:17:14;;;;;;;14.52;3.38;;;;;;;19.33;100.00;99033.25;10564828;28;20486;-77
2023/10/19 11:22:15;;;;;;;3.22;2.28;;;;;;;19.04;100.00;99026.06;10582468;28;20058;-77
2023/10/19 11:27:27;;;;;;;12.05;3.88;;;;;;;18.85;100.00;99020.59;10564256;28;20035;-77
2023/10/19 11:32:37;;;;;;;20.38;3.08;;;;;;;18.61;100.00;99006.16;10565595;28;20039;-77
2023/10/19 11:37:54;;;;;;;2.10;1.88;;;;;;;18.52;100.00;99016.97;10565129;28;20055;-77
2023/10/19 11:43:00;;;;;;;;;;;;;;;18.42;100.00;99015.19;10598152;27;20052;-77
2023/10/19 11:48:01;;;;;;;9.90;3.33;;;;;;;18.48;100.00;99007.72;10564166;28;19911;-78
2023/10/19 11:53:03;;;;;;;6.25;3.83;;;;;;;18.47;100.00;99001.38;10580312;28;20043;-77
2023/10/19 11:58:03;;;;;;;11.68;3.13;;;;;;;18.21;100.00;98994.63;10580478;28;20035;-77
2023/10/19 12:03:06;;;;;;;15.98;3.58;;;;;;;18.19;100.00;99011.38;10581520;28;20055;-77
2023/10/19 12:08:06;;;;;;;4.15;3.63;;;;;;;18.10;100.00;99000.25;10581005;28;20107;-78
2023/10/19 12:13:08;;;;;;;11.35;3.13;;;;;;;17.89;100.00;98991.47;10580411;28;20107;-78
2023/10/19 12:18:08;;;;;;;4.30;3.53;;;;;;;17.65;100.00;98994.19;10580035;28;20035;-78
2023/10/19 12:23:09;;;;;;;11.90;4.10;;;;;;;17.46;100.00;98979.63;10580031;28;20390;-79
2023/10/19 12:28:13;;;;;;;8.20;3.70;;;;;;;17.27;100.00;98957.66;10562280;28;20032;-79
2023/10/19 12:33:13;;;;;;;17.55;3.17;;;;;;;17.19;100.00;98964.56;10580564;28;20036;-79
2023/10/19 12:38:17;;;;;;;12.55;4.22;;;;;;;17.24;100.00;98971.91;10562916;28;20534;-78
2023/10/19 12:43:22;;;;;;;12.73;3.85;;;;;;;17.31;100.00;98968.84;10580202;28;20038;-79
2023/10/19 12:48:25;;;;;;;3.85;2.63;;;;;;;17.39;100.00;98954.53;10578504;28;20032;-78
2023/10/19 12:53:26;;;;;;;13.45;3.88;;;;;;;17.42;100.00;98953.94;10578944;28;20035;-78
2023/10/19 12:58:27;;;;;;;7.60;3.60;;;;;;;17.29;100.00;98960.09;10547397;28;20042;-79
2023/10/19 13:03:32;;;;;;;10.02;4.22;;;;;;;17.34;100.00;98947.19;10589567;28;20051;-79
2023/10/19 13:08:33;;;;;;;11.15;3.83;;;;;;;17.34;100.00;98952.66;10596658;28;20083;-80
2023/10/19 13:13:36;;;;;;;8.25;4.18;;;;;;;17.29;100.00;98949.16;10581967;28;20045;-80
2023/10/19 13:18:36;;;;;;;10.48;3.28;;;;;;;17.09;100.00;98936.50;10574247;28;20489;-80
2023/10/19 13:23:37;;;;;;;11.13;3.55;;;;;;;16.99;100.00;98939.34;10589528;28;20110;-80
2023/10/19 13:28:38;;;;;;;15.13;4.13;;;;;;;16.88;100.00;98931.22;10586532;28;20115;-80
2023/10/19 13:33:40;;;;;;;11.23;5.47;;;;;;;16.87;100.00;98921.38;10569445;28;20030;-81
2023/10/19 13:38:41;;;;;;;11.85;4.07;;;;;;;16.99;100.00;98931.94;10569539;28;20473;-81
2023/10/19 13:43:42;;;;;;;5.35;3.15;;;;;;;17.14;100.00;98922.78;10551368;28;20026;-82
2023/10/19 13:48:45;;;;;;;8.90;4.05;;;;;;;17.00;100.00;98921.81;10551396;28;20032;-80
2023/10/19 13:53:46;;;;;;;8.45;3.95;;;;;;;16.79;100.00;98891.13;10586181;28;20160;-82
2023/10/19 13:58:47;;;;;;;12.18;3.95;;;;;;;16.70;100.00;98899.09;10584584;28;20032;-81
2023/10/19 14:03:48;;;;;;;12.68;4.03;;;;;;;16.66;100.00;98890.66;10568531;28;20050;-81
2023/10/19 14:08:48;;;;;;;9.02;3.65;;;;;;;16.59;100.00;98882.00;10584398;28;20031;-81
2023/10/19 14:13:51;;;;;;;9.38;3.83;;;;;;;16.52;100.00;98865.91;10584449;28;20040;-81
2023/10/19 14:18:52;;;;;;;19.40;4.55;;;;;;;16.41;100.00;98864.38;10569160;28;20061;-80
2023/10/19 14:23:54;;;;;;;9.77;4.38;;;;;;;16.38;100.00;98864.94;10566552;28;20093;-79
2023/10/19 14:28:57;;;;;;;8.00;3.80;;;;;;;16.35;100.00;98870.97;10584654;28;20067;-80
2023/10/19 14:33:58;;;;;;;14.23;3.75;;;;;;;16.48;100.00;98853.09;10567185;28;20027;-80
2023/10/19 14:38:58;;;;;;;12.27;2.83;;;;;;;16.55;100.00;98842.66;10566588;28;20118;-81
2023/10/19 14:44:01;;;;;;;15.35;4.53;;;;;;;16.48;100.00;98810.22;10582992;28;20454;-81
2023/10/19 14:49:02;;;;;;;14.15;4.45;;;;;;;16.47;100.00;98805.03;10584026;28;20045;-81
2023/10/19 14:54:03;;;;;;;12.13;3.78;;;;;;;16.58;100.00;98830.34;10582884;28;20432;-80
2023/10/19 14:59:06;;;;;;;8.52;3.33;;;;;;;16.63;100.00;98843.97;10567216;28;20088;-81
2023/10/19 15:04:07;;;;;;;9.48;4.45;;;;;;;16.55;100.00;98830.91;10565429;28;20089;-81
2023/10/19 15:09:14;;;;;;;9.50;3.65;;;;;;;16.62;100.00;98828.66;10581892;28;20229;-80
2023/10/19 15:14:16;;;;;;;12.70;4.18;;;;;;;16.76;100.00;98816.00;10582491;28;20368;-80
2023/10/19 15:19:18;;;;;;;8.98;3.88;;;;;;;16.89;100.00;98801.63;10565310;28;20494;-81
2023/10/19 15:24:19;;;;;;;2.90;2.40;;;;;;;16.93;100.00;98810.88;10583391;28;20085;-80
2023/10/19 15:29:19;;;;;;;15.43;3.65;;;;;;;16.84;100.00;98804.41;10566125;28;20035;-80
2023/10/19 15:34:20;;;;;;;4.75;3.38;;;;;;;16.82;100.00;98819.50;10563559;28;20390;-79
2023/10/19 15:39:23;;;;;;;5.75;3.80;;;;;;;16.73;100.00;98813.81;10582769;28;20055;-80
2023/10/19 15:44:23;;;;;;;2.92;2.40;;;;;;;16.85;100.00;98829.84;10582996;28;20494;-80
2023/10/19 15:49:24;;;;;;;7.00;3.28;;;;;;;16.87;100.00;98822.97;10583580;28;20035;-80
2023/10/19 15:54:25;;;;;;;7.55;2.65;;;;;;;16.82;100.00;98825.78;10580829;28;20043;-81
2023/10/19 15:59:25;;;;;;;9.40;4.60;;;;;;;16.85;100.00;98822.47;10580260;28;20060;-80
2023/10/19 16:04:26;;;;;;;5.13;2.20;;;;;;;16.74;100.00;98826.34;10563012;28;20039;-80
2023/10/19 16:09:27;;;;;;;5.78;2.65;;;;;;;16.71;100.00;98829.66;10563018;28;20042;-80
2023/10/19 16:14:27;;;;;;;11.57;4.18;;;;;;;16.73;100.00;98822.00;10579428;28;20028;-80
2023/10/19 16:19:29;;;;;;;5.20;2.97;;;;;;;16.71;100.00;98816.81;10562011;28;20036;-80
2023/10/19 16:24:30;;;;;;;2.95;2.70;;;;;;;16.65;100.00;98814.41;10545426;28;20027;-80
2023/10/19 16:29:32;;;;;;;7.70;4.28;;;;;;;16.61;100.00;98814.19;10579344;28;20038;-80
2023/10/19 16:34:33;;;;;;;3.50;3.22;;;;;;;16.59;100.00;98821.03;10561778;28;20467;-81
2023/10/19 16:39:33;;;;;;;5.95;3.17;;;;;;;16.57;100.00;98809.59;10578598;28;20123;-81
2023/10/19 16:44:34;;;;;;;9.77;3.35;;;;;;;16.54;100.00;98824.66;10562593;28;20052;-81
2023/10/19 16:49:35;;;;;;;3.15;2.95;;;;;;;16.56;100.00;98818.88;10580273;28;20459;-80
2023/10/19 16:54:36;;;;;;;4.03;3.10;;;;;;;16.46;100.00;98817.91;10579759;28;20078;-80
2023/10/19 16:59:36;;;;;;;13.57;4.05;;;;;;;16.34;100.00;98819.38;10563728;28;20500;-78
2023/10/19 17:04:39;;;;;;;9.32;3.78;;;;;;;16.36;100.00;98831.63;10565650;28;20031;-79
2023/10/19 17:09:50;;;;;;;8.13;3.30;;;;;;;16.34;100.00;98830.31;10579518;28;20051;-80
2023/10/19 17:14:53;;;;;;;5.13;3.38;;;;;;;16.29;100.00;98828.41;10563422;28;20059;-80
2023/10/19 17:19:54;;;;;;;8.05;2.97;;;;;;;16.32;100.00;98827.84;10579057;28;20359;-81
2023/10/19 17:24:54;;;;;;;5.65;3.97;;;;;;;16.21;100.00;98829.03;10561764;28;20051;-80
2023/10/19 17:29:55;;;;;;;6.85;3.35;;;;;;;15.92;100.00;98818.03;10579039;28;20461;-80
2023/10/19 17:34:55;;;;;;;4.10;3.78;;;;;;;15.66;100.00;98803.72;10576958;28;20039;-80
2023/10/19 17:39:56;;;;;;;9.32;4.22;;;;;;;15.52;100.00;98809.78;10561117;28;20063;-80
2023/10/19 17:44:57;;;;;;;9.73;4.10;;;;;;;15.40;100.00;98795.66;10579592;28;20040;-80
2023/10/19 17:49:58;;;;;;;10.93;4.25;;;;;;;15.32;100.00;98788.91;10585070;28;20336;-79
2023/10/19 17:54:58;;;;;;;17.90;5.05;;;;;;;15.30;100.00;98787.53;10584971;28;20100;-80
2023/10/19 17:59:59;;;;;;;13.95;6.40;;;;;;;15.25;100.00;98787.56;10584689;28;20490;-80
2023/10/19 18:05:00;;;;;;;5.35;4.40;;;;;;;15.20;100.00;98780.22;10584715;28;20074;-80
2023/10/19 18:10:01;;;;;;;14.57;5.70;;;;;;;15.22;100.00;98785.38;10567086;28;20031;-81
2023/10/19 18:15:12;;;;;;;8.52;4.38;;;;;;;15.14;100.00;98791.44;10583636;28;20056;-80
2023/10/19 18:20:18;;;;;;;6.93;5.25;;;;;;;15.10;100.00;98791.19;10601723;27;20091;-80
2023/10/19 18:25:35;;;;;;;8.68;5.93;;;;;;;15.00;100.00;98783.06;10553294;28;20076;-81
2023/10/19 18:30:36;;;;;;;13.65;4.80;;;;;;;14.97;100.00;98789.06;10581186;28;20054;-80
2023/10/19 18:35:42;;;;;;;13.52;6.38;;;;;;;14.86;100.00;98791.78;10583683;28;20034;-80
2023/10/19 18:41:01;;;;;;;7.77;5.23;;;;;;;14.84;100.00;98790.47;10550393;28;20056;-80
2023/10/19 18:46:03;;;;;;;9.00;7.75;;;;;;;14.85;100.00;98787.44;10583695;28;20147;-80
2023/10/19 18:51:17;;;;;;;23.83;8.38;;;;;;;14.81;100.00;98782.84;10549942;28;20020;-77
2023/10/19 18:56:21;;;;;;;9.50;7.07;;;;;;;14.80;100.00;98786.63;10584288;28;20110;-77
2023/10/19 19:01:22;;;;;;;16.70;6.93;;;;;;;14.72;100.00;98781.78;10586053;28;20028;-78
2023/10/19 19:06:22;;;;;;;7.63;5.95;;;;;;;14.71;100.00;98770.06;10574599;28;20126;-79
2023/10/19 19:11:23;;;;;;;8.88;5.63;;;;;;;14.63;100.00;98760.53;10582086;28;20118;-79
2023/10/19 19:16:26;;;;;;;16.70;6.20;;;;;;;14.63;100.00;98760.53;10581495;28;20055;-77
2023/10/19 19:21:27;;;;;;;11.05;7.05;;;;;;;14.57;100.00;98753.47;10585736;28;20035;-77
2023/10/19 19:26:28;;;;;;;12.13;8.07;;;;;;;14.51;100.00;98740.13;10582466;28;20032;-79
2023/10/19 19:31:42;;;;;;;8.77;6.43;;;;;;;14.51;100.00;98738.22;10566844;28;20020;-77
2023/10/19 19:36:46;;;;;;;18.40;7.68;;;;;;;14.49;100.00;98732.22;10606463;27;20418;-80
2023/10/19 19:41:46;;;;;;;7.43;6.65;;;;;;;14.44;100.00;98721.34;10573024;28;20065;-79
2023/10/19 19:46:48;;;;;;;17.50;8.90;;;;;;;14.40;100.00;98721.06;10589619;28;20058;-77
2023/10/19 19:51:48;;;;;;;16.00;7.55;;;;;;;14.40;100.00;98720.25;10581139;28;20066;-81
2023/10/19 19:56:55;;;;;;;13.73;7.88;;;;;;;14.37;100.00;98726.25;10581442;28;20051;-81
2023/10/19 20:02:19;;;;;;;18.17;8.75;;;;;;;14.35;100.00;98726.53;10563624;28;20489;-80
2023/10/19 20:07:36;;;;;;;11.13;9.10;;;;;;;14.32;100.00;98710.72;10579374;28;20046;-80
2023/10/19 20:12:52;;;;;;;11.60;9.05;;;;;;;14.30;100.00;98714.84;10563997;28;20043;-81
2023/10/19 20:17:54;;;;;;;11.00;9.10;;;;;;;14.33;100.00;98708.84;10579484;28;20048;-79
2023/10/19 20:22:57;;;;;;;15.95;9.98;;;;;;;14.36;100.00;98711.84;10564672;28;20032;-79
2023/10/19 20:28:04;;;;;;;10.75;9.05;;;;;;;14.37;100.00;98705.28;10580388;28;20394;-80
2023/10/19 20:33:07;;;;;;;14.23;9.65;;;;;;;14.33;100.00;98682.44;10562079;28;20062;-80
2023/10/19 20:38:15;;;;;;;14.18;9.90;;;;;;;14.32;100.00;98674.53;10579065;28;20051;-80
2023/10/19 20:43:18;;;;;;;13.70;10.48;;;;;;;14.32;100.00;98672.63;10579203;28;20124;-80
2023/10/19 20:48:21;;;;;;;21.13;11.15;;;;;;;14.37;100.00;98679.97;10580870;28;20114;-81
2023/10/19 20:53:25;;;;;;;14.30;11.32;;;;;;;14.40;100.00;98680.22;10561680;28;20040;-81
2023/10/19 20:58:26;;;;;;;18.05;12.93;;;;;;;14.42;100.00;98674.50;10578106;28;20040;-81
2023/10/19 21:03:29;;;;;;;12.48;11.20;;;;;;;14.34;100.00;98670.44;10562017;28;20036;-80
2023/10/19 21:08:32;;;;;;;17.63;11.80;;;;;;;14.38;100.00;98657.91;10579580;28;20474;-81
2023/10/19 21:13:33;;;;;;;18.95;11.98;;;;;;;14.39;100.00;98648.66;10578112;28;20032;-80
2023/10/19 21:18:33;;;;;;;15.02;10.88;;;;;;;14.34;100.00;98634.25;10561595;28;20031;-80
2023/10/19 21:23:34;;;;;;;22.02;12.75;;;;;;;14.29;100.00;98612.47;10588131;28;20064;-80
2023/10/19 21:28:35;;;;;;;15.68;12.48;;;;;;;14.27;100.00;98614.66;10587924;28;20474;-81
2023/10/19 21:33:36;;;;;;;20.70;13.13;;;;;;;14.33;100.00;98616.28;10585237;28;20035;-80
2023/10/19 21:38:40;;;;;;;12.32;11.05;;;;;;;14.29;100.00;98612.47;10586463;28;20058;-81
2023/10/19 21:43:41;;;;;;;13.98;12.23;;;;;;;14.26;100.00;98618.47;10569122;28;20343;-80
2023/10/19 21:48:41;;;;;;;23.27;12.90;;;;;;;14.25;100.00;98614.13;10587997;28;20039;-80
2023/10/19 21:53:45;;;;;;;18.23;11.02;;;;;;;14.29;100.00;98612.47;10586691;28;20076;-80
2023/10/19 21:58:45;;;;;;;14.32;12.10;;;;;;;14.28;100.00;98613.56;10586359;28;20051;-80
2023/10/19 22:03:46;;;;;;;15.30;13.63;;;;;;;14.26;100.00;98597.50;10586037;28;20032;-80
2023/10/19 22:08:47;;;;;;;13.75;12.35;;;;;;;14.28;100.00;98583.63;10585504;28;20068;-81
2023/10/19 22:13:50;;;;;;;14.63;13.15;;;;;;;14.32;100.00;98603.75;10583784;28;20032;-81
2023/10/19 22:18:52;;;;;;;16.45;13.80;;;;;;;14.26;100.00;98591.25;10567522;28;20102;-80
2023/10/19 22:23:53;;;;;;;31.42;15.43;;;;;;;14.28;100.00;98594.50;10588047;28;20030;-80
2023/10/19 22:28:53;;;;;;;29.77;15.18;;;;;;;14.28;100.00;98589.06;10602083;27;20431;-81
2023/10/19 22:33:54;;;;;;;17.65;15.85;;;;;;;14.28;100.00;98595.31;10583923;28;20546;-80
2023/10/19 22:38:55;;;;;;;21.58;14.77;;;;;;;14.24;100.00;98596.16;10583855;28;20434;-81
2023/10/19 22:43:56;;;;;;;19.48;16.33;;;;;;;14.23;100.00;98583.63;10583671;28;20090;-81
2023/10/19 22:48:58;;;;;;;30.35;17.05;;;;;;;14.19;100.00;98581.47;10584846;28;20093;-81
2023/10/19 22:54:01;;;;;;;21.83;18.77;;;;;;;14.18;100.00;98592.63;10581856;28;20504;-80
2023/10/19 22:59:03;;;;;;;25.52;19.95;;;;;;;14.19;100.00;98584.19;10583952;28;20051;-81
2023/10/19 23:04:06;;;;;;;24.98;18.65;;;;;;;14.14;100.00;98578.78;10583314;28;20040;-80
2023/10/19 23:09:15;;;;;;;24.63;19.15;;;;;;;14.16;100.00;98562.97;10566327;28;20484;-80
2023/10/19 23:14:17;;;;;;;20.95;18.70;;;;;;;14.18;100.00;98555.34;10583904;28;20030;-81
2023/10/19 23:19:21;;;;;;;25.75;19.90;;;;;;;14.19;100.00;98548.00;10582749;28;20032;-80
2023/10/19 23:24:30;;;;;;;29.27;21.83;;;;;;;14.17;100.00;98528.41;10550129;28;20040;-80
2023/10/19 23:29:32;;;;;;;23.60;19.15;;;;;;;14.18;100.00;98514.50;10566370;28;20089;-80
2023/10/19 23:34:32;;;;;;;25.23;22.50;;;;;;;14.18;100.00;98509.06;10582517;28;20031;-80
2023/10/19 23:39:34;;;;;;;24.98;20.88;;;;;;;14.19;100.00;98494.34;10581826;28;20055;-80